Terminal Aerodrome Forecast
Issued by NWS

Home | Current Version | Previous Version | Text Only | Print | Product List | Glossary On
Versions: 1 2 3 4 5 6 7 8 9 10 11 12 13 14 15 16 17 18 19
039
FTPA31 PHFO 232320
TAFHTO
TAF
PHTO 232320Z 2400/2424 15007KT 6SM -SHRA BR SCT015 BKN025
     FM240600 22006KT 6SM -SHRA BR SCT015 BKN025
     FM242100 16007KT 6SM -SHRA BR SCT015 BKN025=

USA.gov is the U.S. government's official web portal to all federal, state and local government web resources and services.